sensor_id;sensor_type;location;lat;lon;timestamp;temperature;humidity
37478;DHT22;23334;54.316;10.182;2023-04-05T00:00:28;-0.90;99.90
37478;DHT22;23334;54.316;10.182;2023-04-05T00:02:56;-1.10;99.90
37478;DHT22;23334;54.316;10.182;2023-04-05T00:05:24;-0.90;99.90
37478;DHT22;23334;54.316;10.182;2023-04-05T00:07:59;-0.90;99.90
37478;DHT22;23334;54.316;10.182;2023-04-05T00:10:30;-0.90;99.90
37478;DHT22;23334;54.316;10.182;2023-04-05T00:12:56;-1.00;99.90
37478;DHT22;23334;54.316;10.182;2023-04-05T00:15:22;-0.80;99.90
37478;DHT22;23334;54.316;10.182;2023-04-05T00:17:49;-0.90;99.90
37478;DHT22;23334;54.316;10.182;2023-04-05T00:20:15;-0.70;99.90
37478;DHT22;23334;54.316;10.182;2023-04-05T00:22:41;-0.80;99.90
37478;DHT22;23334;54.316;10.182;2023-04-05T00:25:11;-0.60;99.90
37478;DHT22;23334;54.316;10.182;2023-04-05T00:27:36;-0.80;99.90
37478;DHT22;23334;54.316;10.182;2023-04-05T00:30:02;-0.80;99.90
37478;DHT22;23334;54.316;10.182;2023-04-05T00:32:28;-0.50;99.90
37478;DHT22;23334;54.316;10.182;2023-04-05T00:34:53;-1.20;99.90
37478;DHT22;23334;54.316;10.182;2023-04-05T00:37:20;-0.90;99.90
37478;DHT22;23334;54.316;10.182;2023-04-05T00:39:46;-1.00;99.90
37478;DHT22;23334;54.316;10.182;2023-04-05T00:42:11;-0.70;99.90
37478;DHT22;23334;54.316;10.182;2023-04-05T00:44:37;-0.90;99.90
37478;DHT22;23334;54.316;10.182;2023-04-05T00:47:05;-1.00;99.90
37478;DHT22;23334;54.316;10.182;2023-04-05T00:49:32;-1.10;99.90
37478;DHT22;23334;54.316;10.182;2023-04-05T00:51:58;-1.10;99.90
37478;DHT22;23334;54.316;10.182;2023-04-05T00:54:25;-1.00;99.90
37478;DHT22;23334;54.316;10.182;2023-04-05T00:56:55;-0.90;99.90
37478;DHT22;23334;54.316;10.182;2023-04-05T00:59:20;-1.10;99.90
37478;DHT22;23334;54.316;10.182;2023-04-05T01:01:55;-1.20;99.90
37478;DHT22;23334;54.316;10.182;2023-04-05T01:04:24;-0.90;99.90
37478;DHT22;23334;54.316;10.182;2023-04-05T01:09:39;-0.80;99.90
37478;DHT22;23334;54.316;10.182;2023-04-05T01:12:08;-0.80;99.90
37478;DHT22;23334;54.316;10.182;2023-04-05T01:14:44;-0.40;99.90
37478;DHT22;23334;54.316;10.182;2023-04-05T01:17:10;-0.90;99.90
37478;DHT22;23334;54.316;10.182;2023-04-05T01:19:35;-0.80;99.90
37478;DHT22;23334;54.316;10.182;2023-04-05T01:25:56;-0.40;99.90
37478;DHT22;23334;54.316;10.182;2023-04-05T01:30:36;-0.30;99.90
37478;DHT22;23334;54.316;10.182;2023-04-05T01:33:25;-0.20;99.90
37478;DHT22;23334;54.316;10.182;2023-04-05T01:38:24;0.00;99.90
37478;DHT22;23334;54.316;10.182;2023-04-05T01:40:52;0.10;99.90
37478;DHT22;23334;54.316;10.182;2023-04-05T01:43:17;-0.10;99.90
37478;DHT22;23334;54.316;10.182;2023-04-05T01:45:44;0.10;99.90
37478;DHT22;23334;54.316;10.182;2023-04-05T01:48:10;0.30;99.90
37478;DHT22;23334;54.316;10.182;2023-04-05T01:50:36;0.50;99.90
37478;DHT22;23334;54.316;10.182;2023-04-05T01:53:02;0.30;99.90
37478;DHT22;23334;54.316;10.182;2023-04-05T01:55:27;0.60;99.90
37478;DHT22;23334;54.316;10.182;2023-04-05T01:57:54;0.60;99.90
37478;DHT22;23334;54.316;10.182;2023-04-05T02:00:22;0.60;99.90
37478;DHT22;23334;54.316;10.182;2023-04-05T02:02:48;0.80;99.90
37478;DHT22;23334;54.316;10.182;2023-04-05T02:07:39;-0.50;99.90
37478;DHT22;23334;54.316;10.182;2023-04-05T02:10:05;0.90;99.90
37478;DHT22;23334;54.316;10.182;2023-04-05T02:12:31;1.10;99.90
37478;DHT22;23334;54.316;10.182;2023-04-05T02:14:56;0.90;99.90
37478;DHT22;23334;54.316;10.182;2023-04-05T02:17:23;0.90;99.90
37478;DHT22;23334;54.316;10.182;2023-04-05T02:19:49;1.40;99.90
37478;DHT22;23334;54.316;10.182;2023-04-05T02:22:18;0.90;99.90
37478;DHT22;23334;54.316;10.182;2023-04-05T02:24:43;1.20;99.90
37478;DHT22;23334;54.316;10.182;2023-04-05T02:27:09;1.20;99.90
37478;DHT22;23334;54.316;10.182;2023-04-05T02:29:35;1.10;99.90
37478;DHT22;23334;54.316;10.182;2023-04-05T02:32:01;1.30;99.90
37478;DHT22;23334;54.316;10.182;2023-04-05T02:34:26;1.30;99.90
37478;DHT22;23334;54.316;10.182;2023-04-05T02:36:52;2.50;99.90
37478;DHT22;23334;54.316;10.182;2023-04-05T02:39:18;1.30;99.90
37478;DHT22;23334;54.316;10.182;2023-04-05T02:41:45;1.30;99.90
37478;DHT22;23334;54.316;10.182;2023-04-05T02:46:36;0.80;99.90
37478;DHT22;23334;54.316;10.182;2023-04-05T02:49:02;1.40;99.90
37478;DHT22;23334;54.316;10.182;2023-04-05T02:51:27;1.10;99.90
37478;DHT22;23334;54.316;10.182;2023-04-05T02:53:52;1.30;99.90
37478;DHT22;23334;54.316;10.182;2023-04-05T02:56:18;1.40;99.90
37478;DHT22;23334;54.316;10.182;2023-04-05T02:58:46;1.60;99.90
37478;DHT22;23334;54.316;10.182;2023-04-05T03:01:14;1.40;99.90
37478;DHT22;23334;54.316;10.182;2023-04-05T03:03:42;1.20;99.90
37478;DHT22;23334;54.316;10.182;2023-04-05T03:06:07;1.30;99.90
37478;DHT22;23334;54.316;10.182;2023-04-05T03:08:38;1.10;99.90
37478;DHT22;23334;54.316;10.182;2023-04-05T03:11:09;1.60;99.90
37478;DHT22;23334;54.316;10.182;2023-04-05T03:13:35;1.60;99.90
37478;DHT22;23334;54.316;10.182;2023-04-05T03:16:04;1.60;99.90
37478;DHT22;23334;54.316;10.182;2023-04-05T03:18:30;1.60;99.90
37478;DHT22;23334;54.316;10.182;2023-04-05T03:20:56;1.60;99.90
37478;DHT22;23334;54.316;10.182;2023-04-05T03:23:28;1.60;99.90
37478;DHT22;23334;54.316;10.182;2023-04-05T03:26:01;2.00;99.90
37478;DHT22;23334;54.316;10.182;2023-04-05T03:28:28;1.80;99.90
37478;DHT22;23334;54.316;10.182;2023-04-05T03:30:55;1.60;99.90
37478;DHT22;23334;54.316;10.182;2023-04-05T03:33:21;1.50;99.90
37478;DHT22;23334;54.316;10.182;2023-04-05T03:35:46;1.30;99.90
37478;DHT22;23334;54.316;10.182;2023-04-05T03:38:12;1.60;99.90
37478;DHT22;23334;54.316;10.182;2023-04-05T03:40:38;1.40;99.90
37478;DHT22;23334;54.316;10.182;2023-04-05T03:43:04;1.60;99.90
37478;DHT22;23334;54.316;10.182;2023-04-05T03:45:31;1.70;99.90
37478;DHT22;23334;54.316;10.182;2023-04-05T03:47:57;1.80;99.90
37478;DHT22;23334;54.316;10.182;2023-04-05T03:50:24;1.50;99.90
37478;DHT22;23334;54.316;10.182;2023-04-05T03:52:51;1.20;99.90
37478;DHT22;23334;54.316;10.182;2023-04-05T03:55:16;1.30;99.90
37478;DHT22;23334;54.316;10.182;2023-04-05T04:00:09;1.20;99.90
37478;DHT22;23334;54.316;10.182;2023-04-05T04:02:42;1.20;99.90
37478;DHT22;23334;54.316;10.182;2023-04-05T04:05:09;0.80;99.90
37478;DHT22;23334;54.316;10.182;2023-04-05T04:07:35;0.70;99.90
37478;DHT22;23334;54.316;10.182;2023-04-05T04:10:01;0.50;99.90
37478;DHT22;23334;54.316;10.182;2023-04-05T04:12:26;0.40;99.90
37478;DHT22;23334;54.316;10.182;2023-04-05T04:14:51;0.20;99.90
37478;DHT22;23334;54.316;10.182;2023-04-05T04:17:27;0.40;99.90
37478;DHT22;23334;54.316;10.182;2023-04-05T04:19:53;0.00;99.90
37478;DHT22;23334;54.316;10.182;2023-04-05T04:22:19;-0.20;99.90
37478;DHT22;23334;54.316;10.182;2023-04-05T04:24:48;-0.20;99.90
37478;DHT22;23334;54.316;10.182;2023-04-05T04:27:15;-0.10;99.90
37478;DHT22;23334;54.316;10.182;2023-04-05T04:29:41;-0.30;99.90
37478;DHT22;23334;54.316;10.182;2023-04-05T04:32:15;-0.40;99.90
37478;DHT22;23334;54.316;10.182;2023-04-05T04:34:41;-0.50;99.90
37478;DHT22;23334;54.316;10.182;2023-04-05T04:37:15;-0.50;99.90
37478;DHT22;23334;54.316;10.182;2023-04-05T04:39:46;-0.40;99.90
37478;DHT22;23334;54.316;10.182;2023-04-05T04:42:13;-0.50;99.90
37478;DHT22;23334;54.316;10.182;2023-04-05T04:44:44;-0.70;99.90
37478;DHT22;23334;54.316;10.182;2023-04-05T04:47:10;-0.70;99.90
37478;DHT22;23334;54.316;10.182;2023-04-05T04:49:40;-0.70;99.90
37478;DHT22;23334;54.316;10.182;2023-04-05T04:52:06;-0.70;99.90
37478;DHT22;23334;54.316;10.182;2023-04-05T04:54:32;-0.70;99.90
37478;DHT22;23334;54.316;10.182;2023-04-05T04:56:58;-0.60;99.90
37478;DHT22;23334;54.316;10.182;2023-04-05T04:59:26;-0.80;99.90
37478;DHT22;23334;54.316;10.182;2023-04-05T05:01:52;-0.70;99.90
37478;DHT22;23334;54.316;10.182;2023-04-05T05:04:17;-0.70;99.90
37478;DHT22;23334;54.316;10.182;2023-04-05T05:06:43;-0.70;99.90
37478;DHT22;23334;54.316;10.182;2023-04-05T05:09:08;-0.60;99.90
37478;DHT22;23334;54.316;10.182;2023-04-05T05:11:34;-0.90;99.90
37478;DHT22;23334;54.316;10.182;2023-04-05T05:13:59;-0.60;99.90
37478;DHT22;23334;54.316;10.182;2023-04-05T05:16:25;-0.70;99.90
37478;DHT22;23334;54.316;10.182;2023-04-05T05:18:52;-0.60;99.90
37478;DHT22;23334;54.316;10.182;2023-04-05T05:21:18;-0.60;99.90
37478;DHT22;23334;54.316;10.182;2023-04-05T05:23:44;-0.50;99.90
37478;DHT22;23334;54.316;10.182;2023-04-05T05:26:10;-0.50;99.90
37478;DHT22;23334;54.316;10.182;2023-04-05T05:28:37;-0.40;99.90
37478;DHT22;23334;54.316;10.182;2023-04-05T05:31:03;-0.40;99.90
37478;DHT22;23334;54.316;10.182;2023-04-05T05:33:29;-0.10;99.90
37478;DHT22;23334;54.316;10.182;2023-04-05T05:35:54;-0.20;99.90
37478;DHT22;23334;54.316;10.182;2023-04-05T05:38:20;-0.20;99.90
37478;DHT22;23334;54.316;10.182;2023-04-05T05:40:46;-0.20;99.90
37478;DHT22;23334;54.316;10.182;2023-04-05T05:43:11;0.00;99.90
37478;DHT22;23334;54.316;10.182;2023-04-05T05:45:37;-0.10;99.90
37478;DHT22;23334;54.316;10.182;2023-04-05T05:48:03;0.10;99.90
37478;DHT22;23334;54.316;10.182;2023-04-05T05:50:28;0.20;99.90
37478;DHT22;23334;54.316;10.182;2023-04-05T05:52:57;0.30;99.90
37478;DHT22;23334;54.316;10.182;2023-04-05T05:55:23;0.50;99.90
37478;DHT22;23334;54.316;10.182;2023-04-05T05:57:48;0.80;99.90
37478;DHT22;23334;54.316;10.182;2023-04-05T06:00:14;0.90;99.90
37478;DHT22;23334;54.316;10.182;2023-04-05T06:02:40;1.30;99.90
37478;DHT22;23334;54.316;10.182;2023-04-05T06:05:06;1.80;99.90
37478;DHT22;23334;54.316;10.182;2023-04-05T06:07:35;1.90;99.90
37478;DHT22;23334;54.316;10.182;2023-04-05T06:10:00;2.00;99.90
37478;DHT22;23334;54.316;10.182;2023-04-05T06:12:26;2.30;99.90
37478;DHT22;23334;54.316;10.182;2023-04-05T06:14:51;2.70;99.90
37478;DHT22;23334;54.316;10.182;2023-04-05T06:17:18;2.90;99.90
37478;DHT22;23334;54.316;10.182;2023-04-05T06:19:43;3.20;99.90
37478;DHT22;23334;54.316;10.182;2023-04-05T06:22:09;3.20;99.90
37478;DHT22;23334;54.316;10.182;2023-04-05T06:24:34;3.30;99.90
37478;DHT22;23334;54.316;10.182;2023-04-05T06:27:00;3.40;99.90
37478;DHT22;23334;54.316;10.182;2023-04-05T06:29:26;3.60;99.90
37478;DHT22;23334;54.316;10.182;2023-04-05T06:31:51;3.50;99.90
37478;DHT22;23334;54.316;10.182;2023-04-05T06:34:17;3.50;99.90
37478;DHT22;23334;54.316;10.182;2023-04-05T06:36:42;3.60;99.90
37478;DHT22;23334;54.316;10.182;2023-04-05T06:39:08;3.70;99.90
37478;DHT22;23334;54.316;10.182;2023-04-05T06:41:34;4.00;99.90
37478;DHT22;23334;54.316;10.182;2023-04-05T06:43:59;3.90;99.90
37478;DHT22;23334;54.316;10.182;2023-04-05T06:46:25;4.10;99.90
37478;DHT22;23334;54.316;10.182;2023-04-05T06:48:51;4.60;99.90
37478;DHT22;23334;54.316;10.182;2023-04-05T06:51:18;4.40;99.90
37478;DHT22;23334;54.316;10.182;2023-04-05T06:53:45;4.50;99.90
37478;DHT22;23334;54.316;10.182;2023-04-05T06:56:10;5.10;99.90
37478;DHT22;23334;54.316;10.182;2023-04-05T06:58:36;4.80;99.90
37478;DHT22;23334;54.316;10.182;2023-04-05T07:01:02;4.90;99.90
37478;DHT22;23334;54.316;10.182;2023-04-05T07:03:27;5.60;99.90
37478;DHT22;23334;54.316;10.182;2023-04-05T07:05:55;5.30;99.90
37478;DHT22;23334;54.316;10.182;2023-04-05T07:08:22;5.50;99.90
37478;DHT22;23334;54.316;10.182;2023-04-05T07:10:48;5.80;99.90
37478;DHT22;23334;54.316;10.182;2023-04-05T07:13:15;5.90;99.90
37478;DHT22;23334;54.316;10.182;2023-04-05T07:15:42;6.20;99.90
37478;DHT22;23334;54.316;10.182;2023-04-05T07:18:07;6.40;99.90
37478;DHT22;23334;54.316;10.182;2023-04-05T07:20:33;6.60;99.90
37478;DHT22;23334;54.316;10.182;2023-04-05T07:22:59;6.80;99.90
37478;DHT22;23334;54.316;10.182;2023-04-05T07:25:24;7.10;99.90
37478;DHT22;23334;54.316;10.182;2023-04-05T07:27:50;7.40;99.90
37478;DHT22;23334;54.316;10.182;2023-04-05T07:30:16;8.30;99.90
37478;DHT22;23334;54.316;10.182;2023-04-05T07:32:42;8.10;99.90
37478;DHT22;23334;54.316;10.182;2023-04-05T07:35:08;8.60;99.90
37478;DHT22;23334;54.316;10.182;2023-04-05T07:37:33;8.50;99.90
37478;DHT22;23334;54.316;10.182;2023-04-05T07:39:59;8.10;99.90
37478;DHT22;23334;54.316;10.182;2023-04-05T07:42:24;8.00;99.90
37478;DHT22;23334;54.316;10.182;2023-04-05T07:44:52;7.50;99.90
37478;DHT22;23334;54.316;10.182;2023-04-05T07:47:17;7.70;99.90
37478;DHT22;23334;54.316;10.182;2023-04-05T07:49:43;7.90;99.90
37478;DHT22;23334;54.316;10.182;2023-04-05T07:52:08;8.20;99.90
37478;DHT22;23334;54.316;10.182;2023-04-05T07:54:34;8.10;99.90
37478;DHT22;23334;54.316;10.182;2023-04-05T07:57:00;8.20;99.90
37478;DHT22;23334;54.316;10.182;2023-04-05T07:59:27;8.20;99.90
37478;DHT22;23334;54.316;10.182;2023-04-05T08:01:52;8.20;99.90
37478;DHT22;23334;54.316;10.182;2023-04-05T08:04:18;8.10;99.90
37478;DHT22;23334;54.316;10.182;2023-04-05T08:06:45;8.10;99.90
37478;DHT22;23334;54.316;10.182;2023-04-05T08:09:11;8.10;99.90
37478;DHT22;23334;54.316;10.182;2023-04-05T08:11:36;8.50;99.90
37478;DHT22;23334;54.316;10.182;2023-04-05T08:14:02;8.80;99.90
37478;DHT22;23334;54.316;10.182;2023-04-05T08:16:28;9.00;99.90
37478;DHT22;23334;54.316;10.182;2023-04-05T08:18:54;9.70;99.90
37478;DHT22;23334;54.316;10.182;2023-04-05T08:21:20;9.50;99.90
37478;DHT22;23334;54.316;10.182;2023-04-05T08:23:46;9.70;99.90
37478;DHT22;23334;54.316;10.182;2023-04-05T08:26:11;9.80;99.90
37478;DHT22;23334;54.316;10.182;2023-04-05T08:28:37;10.00;99.90
37478;DHT22;23334;54.316;10.182;2023-04-05T08:31:02;10.20;99.90
37478;DHT22;23334;54.316;10.182;2023-04-05T08:33:28;10.40;99.90
37478;DHT22;23334;54.316;10.182;2023-04-05T08:35:56;10.40;99.90
37478;DHT22;23334;54.316;10.182;2023-04-05T08:38:21;10.30;99.90
37478;DHT22;23334;54.316;10.182;2023-04-05T08:40:47;10.70;99.90
37478;DHT22;23334;54.316;10.182;2023-04-05T08:43:27;10.80;99.90
37478;DHT22;23334;54.316;10.182;2023-04-05T08:45:55;11.00;99.90
37478;DHT22;23334;54.316;10.182;2023-04-05T08:48:21;11.00;99.90
37478;DHT22;23334;54.316;10.182;2023-04-05T08:50:53;11.00;99.90
37478;DHT22;23334;54.316;10.182;2023-04-05T08:53:20;11.30;99.90
37478;DHT22;23334;54.316;10.182;2023-04-05T08:55:51;11.80;99.90
37478;DHT22;23334;54.316;10.182;2023-04-05T08:58:20;11.50;99.90
37478;DHT22;23334;54.316;10.182;2023-04-05T09:00:50;11.20;99.90
37478;DHT22;23334;54.316;10.182;2023-04-05T09:03:20;11.20;99.90
37478;DHT22;23334;54.316;10.182;2023-04-05T09:05:52;11.20;99.90
37478;DHT22;23334;54.316;10.182;2023-04-05T09:08:18;11.20;99.90
37478;DHT22;23334;54.316;10.182;2023-04-05T09:10:43;11.10;99.90
37478;DHT22;23334;54.316;10.182;2023-04-05T09:13:09;11.00;99.90
37478;DHT22;23334;54.316;10.182;2023-04-05T09:15:36;11.00;99.90
37478;DHT22;23334;54.316;10.182;2023-04-05T09:18:01;11.00;99.90
37478;DHT22;23334;54.316;10.182;2023-04-05T09:20:27;11.30;99.90
37478;DHT22;23334;54.316;10.182;2023-04-05T09:22:55;11.70;99.90
37478;DHT22;23334;54.316;10.182;2023-04-05T09:27:56;13.80;99.90
37478;DHT22;23334;54.316;10.182;2023-04-05T09:30:23;14.60;99.90
37478;DHT22;23334;54.316;10.182;2023-04-05T09:32:50;15.90;96.00
37478;DHT22;23334;54.316;10.182;2023-04-05T09:35:27;15.70;99.90
37478;DHT22;23334;54.316;10.182;2023-04-05T09:38:00;15.70;92.90
37478;DHT22;23334;54.316;10.182;2023-04-05T09:40:43;17.10;88.10
37478;DHT22;23334;54.316;10.182;2023-04-05T09:43:10;18.90;80.40
37478;DHT22;23334;54.316;10.182;2023-04-05T09:45:42;19.30;73.40
37478;DHT22;23334;54.316;10.182;2023-04-05T09:48:10;19.10;76.80
37478;DHT22;23334;54.316;10.182;2023-04-05T09:50:37;18.30;71.60
37478;DHT22;23334;54.316;10.182;2023-04-05T09:53:10;18.70;71.00
37478;DHT22;23334;54.316;10.182;2023-04-05T09:55:40;20.90;66.90
37478;DHT22;23334;54.316;10.182;2023-04-05T09:58:11;22.50;55.70
37478;DHT22;23334;54.316;10.182;2023-04-05T10:00:37;22.60;52.50
37478;DHT22;23334;54.316;10.182;2023-04-05T10:03:03;22.80;52.70
37478;DHT22;23334;54.316;10.182;2023-04-05T10:05:29;22.60;51.50
37478;DHT22;23334;54.316;10.182;2023-04-05T10:07:57;21.60;51.80
37478;DHT22;23334;54.316;10.182;2023-04-05T10:10:25;22.90;44.30
37478;DHT22;23334;54.316;10.182;2023-04-05T10:12:52;23.10;44.40
37478;DHT22;23334;54.316;10.182;2023-04-05T10:15:18;24.50;44.90
37478;DHT22;23334;54.316;10.182;2023-04-05T10:20:23;25.00;40.10
37478;DHT22;23334;54.316;10.182;2023-04-05T10:25:41;24.70;39.00
37478;DHT22;23334;54.316;10.182;2023-04-05T10:28:11;24.70;38.90
37478;DHT22;23334;54.316;10.182;2023-04-05T10:30:41;24.70;39.40
37478;DHT22;23334;54.316;10.182;2023-04-05T10:33:25;23.30;38.80
37478;DHT22;23334;54.316;10.182;2023-04-05T10:36:01;22.50;40.60
37478;DHT22;23334;54.316;10.182;2023-04-05T10:38:39;23.10;42.30
37478;DHT22;23334;54.316;10.182;2023-04-05T10:41:14;22.70;41.40
37478;DHT22;23334;54.316;10.182;2023-04-05T10:43:40;21.40;42.00
37478;DHT22;23334;54.316;10.182;2023-04-05T10:46:06;19.30;46.30
37478;DHT22;23334;54.316;10.182;2023-04-05T10:51:11;19.10;48.20
37478;DHT22;23334;54.316;10.182;2023-04-05T10:53:37;19.70;47.60
37478;DHT22;23334;54.316;10.182;2023-04-05T10:56:03;20.00;48.20
37478;DHT22;23334;54.316;10.182;2023-04-05T10:58:29;18.50;57.50
37478;DHT22;23334;54.316;10.182;2023-04-05T11:00:56;16.30;56.10
37478;DHT22;23334;54.316;10.182;2023-04-05T11:03:48;13.80;60.70
37478;DHT22;23334;54.316;10.182;2023-04-05T11:08:57;12.90;68.80
37478;DHT22;23334;54.316;10.182;2023-04-05T11:11:23;12.40;72.10
37478;DHT22;23334;54.316;10.182;2023-04-05T11:13:53;12.20;72.40
37478;DHT22;23334;54.316;10.182;2023-04-05T11:16:20;12.30;73.30
37478;DHT22;23334;54.316;10.182;2023-04-05T11:18:47;12.20;70.80
37478;DHT22;23334;54.316;10.182;2023-04-05T11:21:25;12.10;71.20
37478;DHT22;23334;54.316;10.182;2023-04-05T11:26:32;11.90;73.60
37478;DHT22;23334;54.316;10.182;2023-04-05T11:28:58;11.60;71.40
37478;DHT22;23334;54.316;10.182;2023-04-05T11:31:24;11.70;72.60
37478;DHT22;23334;54.316;10.182;2023-04-05T11:33:58;12.10;67.60
37478;DHT22;23334;54.316;10.182;2023-04-05T11:36:32;11.40;62.10
37478;DHT22;23334;54.316;10.182;2023-04-05T11:41:46;11.30;63.20
37478;DHT22;23334;54.316;10.182;2023-04-05T11:44:15;11.50;64.60
37478;DHT22;23334;54.316;10.182;2023-04-05T11:46:41;11.60;67.20
37478;DHT22;23334;54.316;10.182;2023-04-05T11:49:07;11.40;65.00
37478;DHT22;23334;54.316;10.182;2023-04-05T11:51:33;11.50;63.70
37478;DHT22;23334;54.316;10.182;2023-04-05T11:53:58;11.30;64.10
37478;DHT22;23334;54.316;10.182;2023-04-05T11:56:24;11.40;64.30
37478;DHT22;23334;54.316;10.182;2023-04-05T11:58:50;11.10;61.00
37478;DHT22;23334;54.316;10.182;2023-04-05T12:01:16;11.10;62.00
37478;DHT22;23334;54.316;10.182;2023-04-05T12:03:42;10.80;55.10
37478;DHT22;23334;54.316;10.182;2023-04-05T12:06:07;10.80;62.90
37478;DHT22;23334;54.316;10.182;2023-04-05T12:08:41;10.70;63.20
37478;DHT22;23334;54.316;10.182;2023-04-05T12:11:09;10.60;59.10
37478;DHT22;23334;54.316;10.182;2023-04-05T12:13:35;10.40;54.90
37478;DHT22;23334;54.316;10.182;2023-04-05T12:16:05;10.40;59.30
37478;DHT22;23334;54.316;10.182;2023-04-05T12:18:33;10.60;63.20
37478;DHT22;23334;54.316;10.182;2023-04-05T12:21:01;10.10;62.70
37478;DHT22;23334;54.316;10.182;2023-04-05T12:23:26;10.20;65.40
37478;DHT22;23334;54.316;10.182;2023-04-05T12:25:54;10.20;67.20
37478;DHT22;23334;54.316;10.182;2023-04-05T12:28:19;10.30;68.50
37478;DHT22;23334;54.316;10.182;2023-04-05T12:30:50;10.10;69.60
37478;DHT22;23334;54.316;10.182;2023-04-05T12:33:33;10.10;68.80
37478;DHT22;23334;54.316;10.182;2023-04-05T12:36:04;10.50;68.60
37478;DHT22;23334;54.316;10.182;2023-04-05T12:38:36;10.60;69.10
37478;DHT22;23334;54.316;10.182;2023-04-05T12:41:02;10.60;73.00
37478;DHT22;23334;54.316;10.182;2023-04-05T12:43:38;10.60;75.80
37478;DHT22;23334;54.316;10.182;2023-04-05T12:46:15;10.80;69.90
37478;DHT22;23334;54.316;10.182;2023-04-05T12:48:41;10.80;72.80
37478;DHT22;23334;54.316;10.182;2023-04-05T12:51:14;11.00;71.50
37478;DHT22;23334;54.316;10.182;2023-04-05T12:53:47;10.90;72.90
37478;DHT22;23334;54.316;10.182;2023-04-05T12:56:12;10.70;74.50
37478;DHT22;23334;54.316;10.182;2023-04-05T12:58:39;10.40;75.60
37478;DHT22;23334;54.316;10.182;2023-04-05T13:01:05;10.40;73.40
37478;DHT22;23334;54.316;10.182;2023-04-05T13:03:31;10.40;74.30
37478;DHT22;23334;54.316;10.182;2023-04-05T13:05:56;10.20;76.30
37478;DHT22;23334;54.316;10.182;2023-04-05T13:08:23;10.30;76.00
37478;DHT22;23334;54.316;10.182;2023-04-05T13:10:48;10.20;76.10
37478;DHT22;23334;54.316;10.182;2023-04-05T13:13:17;10.20;76.00
37478;DHT22;23334;54.316;10.182;2023-04-05T13:15:43;10.20;75.00
37478;DHT22;23334;54.316;10.182;2023-04-05T13:18:09;10.30;76.40
37478;DHT22;23334;54.316;10.182;2023-04-05T13:20:35;10.10;74.10
37478;DHT22;23334;54.316;10.182;2023-04-05T13:23:00;9.80;75.40
37478;DHT22;23334;54.316;10.182;2023-04-05T13:25:26;9.70;77.50
37478;DHT22;23334;54.316;10.182;2023-04-05T13:27:52;9.70;76.30
37478;DHT22;23334;54.316;10.182;2023-04-05T13:30:18;9.60;75.30
37478;DHT22;23334;54.316;10.182;2023-04-05T13:32:43;9.60;75.60
37478;DHT22;23334;54.316;10.182;2023-04-05T13:35:09;9.70;78.50
37478;DHT22;23334;54.316;10.182;2023-04-05T13:37:35;9.60;78.30
37478;DHT22;23334;54.316;10.182;2023-04-05T13:40:01;9.50;77.90
37478;DHT22;23334;54.316;10.182;2023-04-05T13:42:27;9.40;76.80
37478;DHT22;23334;54.316;10.182;2023-04-05T13:44:53;9.40;78.20
37478;DHT22;23334;54.316;10.182;2023-04-05T13:47:18;9.30;77.90
37478;DHT22;23334;54.316;10.182;2023-04-05T13:49:44;9.20;78.80
37478;DHT22;23334;54.316;10.182;2023-04-05T13:52:10;9.30;79.70
37478;DHT22;23334;54.316;10.182;2023-04-05T13:54:36;9.10;78.10
37478;DHT22;23334;54.316;10.182;2023-04-05T13:57:01;9.00;80.00
37478;DHT22;23334;54.316;10.182;2023-04-05T13:59:27;9.00;96.20
37478;DHT22;23334;54.316;10.182;2023-04-05T14:01:52;8.80;81.60
37478;DHT22;23334;54.316;10.182;2023-04-05T14:04:18;9.10;81.40
37478;DHT22;23334;54.316;10.182;2023-04-05T14:06:43;9.10;81.80
37478;DHT22;23334;54.316;10.182;2023-04-05T14:09:09;9.00;79.70
37478;DHT22;23334;54.316;10.182;2023-04-05T14:11:35;9.10;79.80
37478;DHT22;23334;54.316;10.182;2023-04-05T14:14:01;9.00;79.40
37478;DHT22;23334;54.316;10.182;2023-04-05T14:16:27;9.00;81.30
37478;DHT22;23334;54.316;10.182;2023-04-05T14:18:53;9.00;80.60
37478;DHT22;23334;54.316;10.182;2023-04-05T14:21:18;9.00;81.20
37478;DHT22;23334;54.316;10.182;2023-04-05T14:23:45;9.00;80.50
37478;DHT22;23334;54.316;10.182;2023-04-05T14:26:26;8.80;80.20
37478;DHT22;23334;54.316;10.182;2023-04-05T14:29:01;8.90;62.80
37478;DHT22;23334;54.316;10.182;2023-04-05T14:31:26;8.90;62.60
37478;DHT22;23334;54.316;10.182;2023-04-05T14:33:52;8.90;63.20
37478;DHT22;23334;54.316;10.182;2023-04-05T14:36:17;8.90;63.40
37478;DHT22;23334;54.316;10.182;2023-04-05T14:38:43;8.80;65.50
37478;DHT22;23334;54.316;10.182;2023-04-05T14:41:08;8.70;73.60
37478;DHT22;23334;54.316;10.182;2023-04-05T14:43:35;8.90;72.90
37478;DHT22;23334;54.316;10.182;2023-04-05T14:46:01;8.80;75.70
37478;DHT22;23334;54.316;10.182;2023-04-05T14:48:27;8.60;76.10
37478;DHT22;23334;54.316;10.182;2023-04-05T14:50:54;8.80;78.10
37478;DHT22;23334;54.316;10.182;2023-04-05T14:53:20;8.80;76.50
37478;DHT22;23334;54.316;10.182;2023-04-05T14:55:45;9.30;78.60
37478;DHT22;23334;54.316;10.182;2023-04-05T14:58:11;8.90;76.50
37478;DHT22;23334;54.316;10.182;2023-04-05T15:00:36;8.60;79.00
37478;DHT22;23334;54.316;10.182;2023-04-05T15:03:02;8.70;78.20
37478;DHT22;23334;54.316;10.182;2023-04-05T15:05:27;8.50;80.20
37478;DHT22;23334;54.316;10.182;2023-04-05T15:07:53;8.70;81.10
37478;DHT22;23334;54.316;10.182;2023-04-05T15:10:18;8.50;79.50
37478;DHT22;23334;54.316;10.182;2023-04-05T15:12:44;8.40;80.30
37478;DHT22;23334;54.316;10.182;2023-04-05T15:15:10;8.50;80.30
37478;DHT22;23334;54.316;10.182;2023-04-05T15:17:35;8.40;79.70
37478;DHT22;23334;54.316;10.182;2023-04-05T15:20:01;8.50;79.90
37478;DHT22;23334;54.316;10.182;2023-04-05T15:22:26;8.20;80.80
37478;DHT22;23334;54.316;10.182;2023-04-05T15:24:54;8.30;80.90
37478;DHT22;23334;54.316;10.182;2023-04-05T15:27:19;8.40;81.70
37478;DHT22;23334;54.316;10.182;2023-04-05T15:29:45;8.20;82.80
37478;DHT22;23334;54.316;10.182;2023-04-05T15:32:10;8.00;83.70
37478;DHT22;23334;54.316;10.182;2023-04-05T15:34:36;8.00;83.20
37478;DHT22;23334;54.316;10.182;2023-04-05T15:37:02;8.00;83.70
37478;DHT22;23334;54.316;10.182;2023-04-05T15:39:28;8.10;96.30
37478;DHT22;23334;54.316;10.182;2023-04-05T15:41:54;8.20;83.10
37478;DHT22;23334;54.316;10.182;2023-04-05T15:44:22;7.90;83.10
37478;DHT22;23334;54.316;10.182;2023-04-05T15:46:47;7.90;83.70
37478;DHT22;23334;54.316;10.182;2023-04-05T15:49:12;7.90;83.90
37478;DHT22;23334;54.316;10.182;2023-04-05T15:51:38;7.80;84.10
37478;DHT22;23334;54.316;10.182;2023-04-05T15:54:04;7.80;83.20
37478;DHT22;23334;54.316;10.182;2023-04-05T15:56:29;7.60;84.80
37478;DHT22;23334;54.316;10.182;2023-04-05T15:58:55;7.80;84.10